sensor_id;sensor_type;location;lat;lon;timestamp;pressure;altitude;pressure_sealevel;temperature;humidity
56604;BME280;42486;47.478;19.036;2023-02-23T00:02:32;100281.44;;;7.61;85.11
56604;BME280;42486;47.478;19.036;2023-02-23T00:05:36;100286.88;;;7.71;82.89
56604;BME280;42486;47.478;19.036;2023-02-23T00:08:40;100281.22;;;7.64;84.31
56604;BME280;42486;47.478;19.036;2023-02-23T00:11:45;100286.31;;;7.66;82.62
56604;BME280;42486;47.478;19.036;2023-02-23T00:14:50;100284.78;;;7.63;83.76
56604;BME280;42486;47.478;19.036;2023-02-23T00:17:54;100283.44;;;7.70;82.62
56604;BME280;42486;47.478;19.036;2023-02-23T00:21:01;100285.47;;;7.65;83.49
56604;BME280;42486;47.478;19.036;2023-02-23T00:24:07;100281.50;;;7.60;83.70
56604;BME280;42486;47.478;19.036;2023-02-23T00:27:17;100285.59;;;7.64;82.79
56604;BME280;42486;47.478;19.036;2023-02-23T00:30:23;100286.31;;;7.66;83.12
56604;BME280;42486;47.478;19.036;2023-02-23T00:33:27;100297.25;;;7.71;83.18
56604;BME280;42486;47.478;19.036;2023-02-23T00:36:35;100295.41;;;7.73;82.82
56604;BME280;42486;47.478;19.036;2023-02-23T00:39:44;100289.13;;;7.63;81.04
56604;BME280;42486;47.478;19.036;2023-02-23T00:42:48;100294.16;;;7.52;81.42
56604;BME280;42486;47.478;19.036;2023-02-23T00:45:55;100300.09;;;7.54;80.49
56604;BME280;42486;47.478;19.036;2023-02-23T00:49:01;100290.25;;;7.59;81.24
56604;BME280;42486;47.478;19.036;2023-02-23T00:52:07;100290.06;;;7.62;80.91
56604;BME280;42486;47.478;19.036;2023-02-23T00:55:13;100290.53;;;7.54;81.91
56604;BME280;42486;47.478;19.036;2023-02-23T00:58:18;100298.41;;;7.53;82.01
56604;BME280;42486;47.478;19.036;2023-02-23T01:01:27;100296.75;;;7.52;82.27
56604;BME280;42486;47.478;19.036;2023-02-23T01:04:32;100303.44;;;7.41;79.94
56604;BME280;42486;47.478;19.036;2023-02-23T01:07:37;100303.34;;;7.43;80.09
56604;BME280;42486;47.478;19.036;2023-02-23T01:10:42;100305.56;;;7.49;79.11
56604;BME280;42486;47.478;19.036;2023-02-23T01:13:45;100306.03;;;7.41;79.58
56604;BME280;42486;47.478;19.036;2023-02-23T01:16:50;100306.69;;;7.45;78.23
56604;BME280;42486;47.478;19.036;2023-02-23T01:19:54;100296.59;;;7.40;77.71
56604;BME280;42486;47.478;19.036;2023-02-23T01:22:58;100297.59;;;7.38;78.26
56604;BME280;42486;47.478;19.036;2023-02-23T01:26:04;100305.13;;;7.28;78.40
56604;BME280;42486;47.478;19.036;2023-02-23T01:29:13;100299.47;;;7.21;79.04
56604;BME280;42486;47.478;19.036;2023-02-23T01:32:17;100305.56;;;7.20;79.16
56604;BME280;42486;47.478;19.036;2023-02-23T01:35:20;100299.94;;;7.14;78.27
56604;BME280;42486;47.478;19.036;2023-02-23T01:38:23;100308.66;;;7.27;78.09
56604;BME280;42486;47.478;19.036;2023-02-23T01:41:28;100307.72;;;7.28;77.39
56604;BME280;42486;47.478;19.036;2023-02-23T01:47:41;100297.97;;;7.17;77.22
56604;BME280;42486;47.478;19.036;2023-02-23T01:50:47;100294.53;;;7.17;77.06
56604;BME280;42486;47.478;19.036;2023-02-23T01:53:57;100290.00;;;7.06;77.46
56604;BME280;42486;47.478;19.036;2023-02-23T01:57:02;100295.47;;;7.16;77.59
56604;BME280;42486;47.478;19.036;2023-02-23T02:00:07;100291.84;;;7.04;77.27
56604;BME280;42486;47.478;19.036;2023-02-23T02:03:30;100292.59;;;7.06;77.82
56604;BME280;42486;47.478;19.036;2023-02-23T02:06:37;100286.66;;;7.04;77.58
56604;BME280;42486;47.478;19.036;2023-02-23T02:09:47;100291.56;;;7.09;78.55
56604;BME280;42486;47.478;19.036;2023-02-23T02:13:16;100297.59;;;7.09;77.69
56604;BME280;42486;47.478;19.036;2023-02-23T02:32:17;100285.75;;;7.05;77.51
56604;BME280;42486;47.478;19.036;2023-02-23T02:35:32;100281.19;;;7.09;78.68
56604;BME280;42486;47.478;19.036;2023-02-23T02:38:44;100284.41;;;7.12;78.75
56604;BME280;42486;47.478;19.036;2023-02-23T02:41:56;100283.97;;;7.20;78.25
56604;BME280;42486;47.478;19.036;2023-02-23T02:45:05;100283.78;;;7.09;77.54
56604;BME280;42486;47.478;19.036;2023-02-23T02:48:26;100286.94;;;7.14;77.67
56604;BME280;42486;47.478;19.036;2023-02-23T02:51:40;100292.09;;;6.99;76.96
56604;BME280;42486;47.478;19.036;2023-02-23T02:54:51;100287.28;;;6.93;76.67
56604;BME280;42486;47.478;19.036;2023-02-23T02:57:56;100296.41;;;7.00;76.98
56604;BME280;42486;47.478;19.036;2023-02-23T03:01:07;100296.47;;;6.99;78.89
56604;BME280;42486;47.478;19.036;2023-02-23T03:04:33;100292.09;;;6.99;77.86
56604;BME280;42486;47.478;19.036;2023-02-23T03:08:00;100293.03;;;6.98;77.94
56604;BME280;42486;47.478;19.036;2023-02-23T03:11:27;100290.38;;;7.00;77.44
56604;BME280;42486;47.478;19.036;2023-02-23T03:15:42;100291.19;;;7.00;77.58
56604;BME280;42486;47.478;19.036;2023-02-23T03:18:39;100298.63;;;7.06;76.82
56604;BME280;42486;47.478;19.036;2023-02-23T03:22:12;100301.66;;;6.99;76.76
56604;BME280;42486;47.478;19.036;2023-02-23T03:29:20;100299.75;;;7.02;77.92
56604;BME280;42486;47.478;19.036;2023-02-23T03:32:47;100301.97;;;7.09;76.80
56604;BME280;42486;47.478;19.036;2023-02-23T03:36:14;100310.84;;;7.04;76.97
56604;BME280;42486;47.478;19.036;2023-02-23T03:39:42;100310.03;;;7.04;78.03
56604;BME280;42486;47.478;19.036;2023-02-23T03:43:08;100300.75;;;7.00;77.57
56604;BME280;42486;47.478;19.036;2023-02-23T03:46:32;100306.78;;;7.00;78.21
56604;BME280;42486;47.478;19.036;2023-02-23T03:49:57;100305.47;;;6.93;77.30
56604;BME280;42486;47.478;19.036;2023-02-23T03:53:26;100303.34;;;7.00;77.84
56604;BME280;42486;47.478;19.036;2023-02-23T03:56:49;100303.81;;;6.92;76.78
56604;BME280;42486;47.478;19.036;2023-02-23T04:00:22;100319.38;;;6.92;76.68
56604;BME280;42486;47.478;19.036;2023-02-23T04:03:47;100307.16;;;6.94;77.79
56604;BME280;42486;47.478;19.036;2023-02-23T04:07:11;100310.00;;;6.90;78.18
56604;BME280;42486;47.478;19.036;2023-02-23T04:10:45;100311.59;;;6.92;76.58
56604;BME280;42486;47.478;19.036;2023-02-23T04:14:15;100306.59;;;6.89;78.90
56604;BME280;42486;47.478;19.036;2023-02-23T04:17:26;100308.44;;;6.87;77.43
56604;BME280;42486;47.478;19.036;2023-02-23T04:20:33;100308.69;;;6.82;77.26
56604;BME280;42486;47.478;19.036;2023-02-23T04:23:37;100312.97;;;6.83;78.06
56604;BME280;42486;47.478;19.036;2023-02-23T04:26:43;100310.38;;;6.83;77.73
56604;BME280;42486;47.478;19.036;2023-02-23T04:29:46;100311.69;;;6.91;78.38
56604;BME280;42486;47.478;19.036;2023-02-23T04:32:51;100303.25;;;6.87;76.95
56604;BME280;42486;47.478;19.036;2023-02-23T04:35:57;100316.59;;;6.81;76.74
56604;BME280;42486;47.478;19.036;2023-02-23T04:39:02;100310.06;;;6.74;77.83
56604;BME280;42486;47.478;19.036;2023-02-23T04:42:05;100314.06;;;6.79;79.67
56604;BME280;42486;47.478;19.036;2023-02-23T04:45:09;100316.88;;;6.91;76.74
56604;BME280;42486;47.478;19.036;2023-02-23T04:48:13;100313.62;;;6.87;77.19
56604;BME280;42486;47.478;19.036;2023-02-23T04:51:17;100311.47;;;6.79;78.27
56604;BME280;42486;47.478;19.036;2023-02-23T04:54:21;100318.44;;;6.79;77.52
56604;BME280;42486;47.478;19.036;2023-02-23T04:57:24;100321.87;;;6.79;78.98
56604;BME280;42486;47.478;19.036;2023-02-23T05:00:29;100312.41;;;6.78;78.05
56604;BME280;42486;47.478;19.036;2023-02-23T05:03:33;100316.09;;;6.74;78.84
56604;BME280;42486;47.478;19.036;2023-02-23T05:06:39;100312.31;;;6.80;78.28
56604;BME280;42486;47.478;19.036;2023-02-23T05:09:42;100315.91;;;6.77;77.83
56604;BME280;42486;47.478;19.036;2023-02-23T05:12:46;100310.59;;;6.65;77.49
56604;BME280;42486;47.478;19.036;2023-02-23T05:15:56;100316.91;;;6.60;78.30
56604;BME280;42486;47.478;19.036;2023-02-23T05:19:00;100323.88;;;6.60;77.87
56604;BME280;42486;47.478;19.036;2023-02-23T05:22:03;100323.28;;;6.55;78.79
56604;BME280;42486;47.478;19.036;2023-02-23T05:25:07;100321.09;;;6.63;79.15
56604;BME280;42486;47.478;19.036;2023-02-23T05:28:11;100324.59;;;6.62;78.66
56604;BME280;42486;47.478;19.036;2023-02-23T05:31:15;100327.06;;;6.49;78.86
56604;BME280;42486;47.478;19.036;2023-02-23T05:34:21;100328.19;;;6.59;79.43
56604;BME280;42486;47.478;19.036;2023-02-23T05:37:24;100331.72;;;6.58;80.00
56604;BME280;42486;47.478;19.036;2023-02-23T05:40:32;100334.97;;;6.62;78.22
56604;BME280;42486;47.478;19.036;2023-02-23T05:43:40;100330.06;;;6.57;77.73
56604;BME280;42486;47.478;19.036;2023-02-23T05:46:46;100331.06;;;6.55;77.93
56604;BME280;42486;47.478;19.036;2023-02-23T05:49:55;100327.72;;;6.53;78.17
56604;BME280;42486;47.478;19.036;2023-02-23T05:52:59;100326.53;;;6.58;78.96
56604;BME280;42486;47.478;19.036;2023-02-23T05:56:03;100334.31;;;6.58;79.09
56604;BME280;42486;47.478;19.036;2023-02-23T05:59:07;100334.50;;;6.55;78.37
56604;BME280;42486;47.478;19.036;2023-02-23T06:02:13;100340.00;;;6.65;77.76
56604;BME280;42486;47.478;19.036;2023-02-23T06:05:20;100341.31;;;6.72;76.42
56604;BME280;42486;47.478;19.036;2023-02-23T06:08:24;100347.19;;;6.76;77.20
56604;BME280;42486;47.478;19.036;2023-02-23T06:11:27;100343.38;;;6.81;76.43
56604;BME280;42486;47.478;19.036;2023-02-23T06:14:32;100349.50;;;6.80;76.54
56604;BME280;42486;47.478;19.036;2023-02-23T06:17:40;100352.00;;;6.82;76.59
56604;BME280;42486;47.478;19.036;2023-02-23T06:20:46;100360.25;;;6.74;75.75
56604;BME280;42486;47.478;19.036;2023-02-23T06:23:52;100361.94;;;6.59;76.77
56604;BME280;42486;47.478;19.036;2023-02-23T06:26:58;100364.81;;;6.55;76.92
56604;BME280;42486;47.478;19.036;2023-02-23T06:30:05;100372.91;;;6.65;76.33
56604;BME280;42486;47.478;19.036;2023-02-23T06:33:08;100371.31;;;6.62;76.20
56604;BME280;42486;47.478;19.036;2023-02-23T06:36:13;100375.97;;;6.57;76.35
56604;BME280;42486;47.478;19.036;2023-02-23T06:39:17;100382.28;;;6.67;78.08
56604;BME280;42486;47.478;19.036;2023-02-23T06:42:23;100374.88;;;6.75;75.26
56604;BME280;42486;47.478;19.036;2023-02-23T06:45:26;100385.22;;;6.61;76.37
56604;BME280;42486;47.478;19.036;2023-02-23T06:48:36;100391.94;;;6.65;76.60
56604;BME280;42486;47.478;19.036;2023-02-23T06:51:40;100393.06;;;6.75;75.78
56604;BME280;42486;47.478;19.036;2023-02-23T06:54:43;100392.72;;;6.81;75.24
56604;BME280;42486;47.478;19.036;2023-02-23T06:57:48;100402.28;;;6.81;74.78
56604;BME280;42486;47.478;19.036;2023-02-23T07:00:59;100395.84;;;7.02;74.53
56604;BME280;42486;47.478;19.036;2023-02-23T07:04:04;100396.31;;;7.09;74.07
56604;BME280;42486;47.478;19.036;2023-02-23T07:07:09;100396.87;;;7.14;72.48
56604;BME280;42486;47.478;19.036;2023-02-23T07:10:16;100402.00;;;7.16;72.19
56604;BME280;42486;47.478;19.036;2023-02-23T07:13:21;100404.81;;;7.27;72.29
56604;BME280;42486;47.478;19.036;2023-02-23T07:16:24;100410.56;;;7.46;71.44
56604;BME280;42486;47.478;19.036;2023-02-23T07:19:31;100408.25;;;7.56;71.08
56604;BME280;42486;47.478;19.036;2023-02-23T07:22:36;100403.06;;;7.56;69.50
56604;BME280;42486;47.478;19.036;2023-02-23T07:25:41;100412.72;;;7.54;69.23
56604;BME280;42486;47.478;19.036;2023-02-23T07:28:44;100409.16;;;7.55;68.19
56604;BME280;42486;47.478;19.036;2023-02-23T07:31:47;100412.25;;;7.62;69.77
56604;BME280;42486;47.478;19.036;2023-02-23T07:34:53;100412.97;;;7.49;68.89
56604;BME280;42486;47.478;19.036;2023-02-23T07:37:56;100415.38;;;7.53;68.56
56604;BME280;42486;47.478;19.036;2023-02-23T07:41:00;100416.97;;;7.55;68.06
56604;BME280;42486;47.478;19.036;2023-02-23T07:44:03;100416.13;;;7.55;67.38
56604;BME280;42486;47.478;19.036;2023-02-23T07:47:07;100422.84;;;7.59;68.74
56604;BME280;42486;47.478;19.036;2023-02-23T07:50:11;100416.31;;;7.66;70.29
56604;BME280;42486;47.478;19.036;2023-02-23T07:53:15;100412.03;;;7.79;68.29
56604;BME280;42486;47.478;19.036;2023-02-23T07:56:19;100418.09;;;7.94;68.39
56604;BME280;42486;47.478;19.036;2023-02-23T07:59:23;100419.94;;;8.06;66.47
56604;BME280;42486;47.478;19.036;2023-02-23T08:02:26;100409.81;;;8.02;67.39
56604;BME280;42486;47.478;19.036;2023-02-23T08:05:34;100419.47;;;8.14;64.82
56604;BME280;42486;47.478;19.036;2023-02-23T08:08:38;100413.75;;;8.22;64.19
56604;BME280;42486;47.478;19.036;2023-02-23T08:11:46;100415.94;;;8.15;66.33
56604;BME280;42486;47.478;19.036;2023-02-23T08:14:50;100417.03;;;8.25;65.56
56604;BME280;42486;47.478;19.036;2023-02-23T08:17:55;100413.94;;;8.33;63.51
56604;BME280;42486;47.478;19.036;2023-02-23T08:20:59;100424.25;;;8.34;66.30
56604;BME280;42486;47.478;19.036;2023-02-23T08:24:01;100424.25;;;8.49;63.22
56604;BME280;42486;47.478;19.036;2023-02-23T08:27:06;100420.72;;;8.35;63.99
56604;BME280;42486;47.478;19.036;2023-02-23T08:30:10;100432.00;;;8.63;64.09
56604;BME280;42486;47.478;19.036;2023-02-23T08:33:14;100422.38;;;8.78;63.40
56604;BME280;42486;47.478;19.036;2023-02-23T08:36:18;100429.91;;;8.95;61.75
56604;BME280;42486;47.478;19.036;2023-02-23T08:39:23;100436.56;;;8.87;61.89
56604;BME280;42486;47.478;19.036;2023-02-23T08:42:27;100433.19;;;8.72;63.05
56604;BME280;42486;47.478;19.036;2023-02-23T08:45:30;100437.41;;;8.60;60.61
56604;BME280;42486;47.478;19.036;2023-02-23T08:48:34;100436.03;;;8.54;62.40
56604;BME280;42486;47.478;19.036;2023-02-23T08:51:37;100434.81;;;8.60;63.28
56604;BME280;42486;47.478;19.036;2023-02-23T08:54:42;100443.22;;;8.78;60.81
56604;BME280;42486;47.478;19.036;2023-02-23T08:57:47;100446.84;;;8.75;61.36
56604;BME280;42486;47.478;19.036;2023-02-23T09:00:53;100438.56;;;8.83;61.24
56604;BME280;42486;47.478;19.036;2023-02-23T09:03:56;100442.47;;;9.16;61.97
56604;BME280;42486;47.478;19.036;2023-02-23T09:07:01;100444.22;;;9.02;59.71
56604;BME280;42486;47.478;19.036;2023-02-23T09:10:06;100452.72;;;9.32;60.31
56604;BME280;42486;47.478;19.036;2023-02-23T09:13:11;100448.59;;;9.15;59.86
56604;BME280;42486;47.478;19.036;2023-02-23T09:16:15;100443.84;;;9.34;60.05
56604;BME280;42486;47.478;19.036;2023-02-23T09:19:19;100443.75;;;9.36;57.24
56604;BME280;42486;47.478;19.036;2023-02-23T09:22:25;100445.72;;;9.32;59.55
56604;BME280;42486;47.478;19.036;2023-02-23T09:25:29;100444.59;;;9.62;60.12
56604;BME280;42486;47.478;19.036;2023-02-23T09:28:33;100452.62;;;9.84;59.08
56604;BME280;42486;47.478;19.036;2023-02-23T09:31:37;100452.59;;;9.97;57.97
56604;BME280;42486;47.478;19.036;2023-02-23T09:34:45;100459.06;;;10.04;56.56
56604;BME280;42486;47.478;19.036;2023-02-23T09:37:53;100449.91;;;9.86;57.00
56604;BME280;42486;47.478;19.036;2023-02-23T09:40:56;100456.06;;;9.98;56.43
56604;BME280;42486;47.478;19.036;2023-02-23T09:50:30;100454.50;;;9.95;57.48
56604;BME280;42486;47.478;19.036;2023-02-23T09:56:47;100461.69;;;10.04;57.98
56604;BME280;42486;47.478;19.036;2023-02-23T09:59:52;100455.47;;;10.18;57.42
56604;BME280;42486;47.478;19.036;2023-02-23T10:03:01;100456.66;;;10.14;56.62
56604;BME280;42486;47.478;19.036;2023-02-23T10:06:10;100464.41;;;9.77;55.80
56604;BME280;42486;47.478;19.036;2023-02-23T10:09:21;100459.50;;;9.98;57.82
56604;BME280;42486;47.478;19.036;2023-02-23T10:12:31;100459.38;;;10.12;56.49
56604;BME280;42486;47.478;19.036;2023-02-23T10:21:57;100459.06;;;10.30;56.88
56604;BME280;42486;47.478;19.036;2023-02-23T10:25:16;100458.53;;;10.12;56.22
56604;BME280;42486;47.478;19.036;2023-02-23T10:28:21;100461.44;;;10.20;56.21
56604;BME280;42486;47.478;19.036;2023-02-23T10:31:29;100451.22;;;10.17;58.03
56604;BME280;42486;47.478;19.036;2023-02-23T10:34:36;100457.06;;;10.33;58.38
56604;BME280;42486;47.478;19.036;2023-02-23T10:37:42;100450.84;;;10.47;59.47
56604;BME280;42486;47.478;19.036;2023-02-23T10:40:49;100441.56;;;10.43;55.31
56604;BME280;42486;47.478;19.036;2023-02-23T10:43:57;100436.31;;;9.93;56.28
56604;BME280;42486;47.478;19.036;2023-02-23T10:47:21;100440.94;;;9.77;56.86
56604;BME280;42486;47.478;19.036;2023-02-23T10:50:29;100435.19;;;9.98;58.44
56604;BME280;42486;47.478;19.036;2023-02-23T10:53:33;100431.91;;;10.32;57.10
56604;BME280;42486;47.478;19.036;2023-02-23T10:56:43;100427.28;;;10.23;56.07
56604;BME280;42486;47.478;19.036;2023-02-23T11:00:21;100422.59;;;10.28;56.59
56604;BME280;42486;47.478;19.036;2023-02-23T11:04:10;100419.97;;;10.28;55.18
56604;BME280;42486;47.478;19.036;2023-02-23T11:07:12;100416.44;;;10.17;57.67
56604;BME280;42486;47.478;19.036;2023-02-23T11:10:24;100403.69;;;10.25;57.81
56604;BME280;42486;47.478;19.036;2023-02-23T11:13:36;100408.06;;;10.24;55.02
56604;BME280;42486;47.478;19.036;2023-02-23T11:16:41;100404.00;;;10.33;57.52
56604;BME280;42486;47.478;19.036;2023-02-23T11:19:47;100394.41;;;10.69;56.42
56604;BME280;42486;47.478;19.036;2023-02-23T11:22:50;100399.44;;;10.72;55.49
56604;BME280;42486;47.478;19.036;2023-02-23T11:25:58;100392.06;;;10.77;55.90
56604;BME280;42486;47.478;19.036;2023-02-23T11:29:15;100393.03;;;10.76;54.54
56604;BME280;42486;47.478;19.036;2023-02-23T11:32:21;100399.06;;;10.65;53.83
56604;BME280;42486;47.478;19.036;2023-02-23T11:35:28;100393.50;;;10.70;54.95
56604;BME280;42486;47.478;19.036;2023-02-23T11:38:32;100392.59;;;10.58;54.43
56604;BME280;42486;47.478;19.036;2023-02-23T11:41:36;100383.97;;;10.45;55.69
56604;BME280;42486;47.478;19.036;2023-02-23T11:44:40;100384.38;;;10.51;56.64
56604;BME280;42486;47.478;19.036;2023-02-23T11:47:47;100380.25;;;10.60;54.80
56604;BME280;42486;47.478;19.036;2023-02-23T11:50:52;100381.81;;;10.63;54.30
56604;BME280;42486;47.478;19.036;2023-02-23T11:53:56;100386.44;;;10.35;55.00
56604;BME280;42486;47.478;19.036;2023-02-23T11:57:00;100375.81;;;10.49;57.58
56604;BME280;42486;47.478;19.036;2023-02-23T12:00:11;100371.53;;;10.72;56.31
56604;BME280;42486;47.478;19.036;2023-02-23T12:03:16;100378.41;;;10.73;53.87
56604;BME280;42486;47.478;19.036;2023-02-23T12:06:33;100375.25;;;10.57;54.46
56604;BME280;42486;47.478;19.036;2023-02-23T12:09:40;100370.81;;;10.70;55.79
56604;BME280;42486;47.478;19.036;2023-02-23T12:12:48;100372.63;;;10.81;56.26
56604;BME280;42486;47.478;19.036;2023-02-23T12:19:19;100365.00;;;10.78;55.20
56604;BME280;42486;47.478;19.036;2023-02-23T12:22:31;100361.53;;;10.42;54.49
56604;BME280;42486;47.478;19.036;2023-02-23T12:25:50;100356.31;;;10.42;55.33
56604;BME280;42486;47.478;19.036;2023-02-23T12:29:20;100352.13;;;10.40;56.25
56604;BME280;42486;47.478;19.036;2023-02-23T12:32:26;100351.25;;;10.28;55.72
56604;BME280;42486;47.478;19.036;2023-02-23T12:35:49;100347.38;;;10.33;57.55
56604;BME280;42486;47.478;19.036;2023-02-23T12:45:04;100330.19;;;10.42;56.69
56604;BME280;42486;47.478;19.036;2023-02-23T12:48:27;100327.69;;;10.65;57.58
56604;BME280;42486;47.478;19.036;2023-02-23T12:51:45;100325.28;;;10.62;55.45
56604;BME280;42486;47.478;19.036;2023-02-23T12:54:53;100333.16;;;10.38;55.85
56604;BME280;42486;47.478;19.036;2023-02-23T12:57:57;100317.19;;;10.53;57.09
56604;BME280;42486;47.478;19.036;2023-02-23T13:01:07;100320.25;;;10.83;58.85
56604;BME280;42486;47.478;19.036;2023-02-23T13:04:30;100316.56;;;10.85;54.90
56604;BME280;42486;47.478;19.036;2023-02-23T13:10:54;100306.62;;;11.01;56.28
56604;BME280;42486;47.478;19.036;2023-02-23T13:17:27;100308.16;;;11.04;57.28
56604;BME280;42486;47.478;19.036;2023-02-23T13:20:37;100299.41;;;11.28;54.17
56604;BME280;42486;47.478;19.036;2023-02-23T13:27:18;100299.13;;;10.97;55.78
56604;BME280;42486;47.478;19.036;2023-02-23T13:30:28;100292.38;;;11.28;57.55
56604;BME280;42486;47.478;19.036;2023-02-23T13:33:38;100293.31;;;11.50;55.63
56604;BME280;42486;47.478;19.036;2023-02-23T13:36:45;100294.47;;;11.68;55.42
56604;BME280;42486;47.478;19.036;2023-02-23T13:43:15;100288.25;;;11.80;53.85
56604;BME280;42486;47.478;19.036;2023-02-23T13:46:35;100284.56;;;11.83;53.22
56604;BME280;42486;47.478;19.036;2023-02-23T13:49:48;100283.97;;;11.79;53.54
56604;BME280;42486;47.478;19.036;2023-02-23T13:52:54;100277.22;;;11.77;53.00
56604;BME280;42486;47.478;19.036;2023-02-23T13:56:03;100272.84;;;11.43;54.17
56604;BME280;42486;47.478;19.036;2023-02-23T13:59:13;100278.47;;;11.39;53.90
56604;BME280;42486;47.478;19.036;2023-02-23T14:02:31;100269.31;;;11.11;55.52
56604;BME280;42486;47.478;19.036;2023-02-23T14:05:43;100270.72;;;11.26;57.42
56604;BME280;42486;47.478;19.036;2023-02-23T14:08:51;100270.97;;;11.34;55.65
56604;BME280;42486;47.478;19.036;2023-02-23T14:18:29;100268.25;;;11.36;56.52
56604;BME280;42486;47.478;19.036;2023-02-23T14:21:56;100274.53;;;11.33;58.34
56604;BME280;42486;47.478;19.036;2023-02-23T14:28:28;100272.97;;;10.97;56.90
56604;BME280;42486;47.478;19.036;2023-02-23T14:35:00;100273.44;;;11.24;57.10
56604;BME280;42486;47.478;19.036;2023-02-23T14:38:28;100271.94;;;11.33;57.28
56604;BME280;42486;47.478;19.036;2023-02-23T14:44:40;100267.03;;;11.29;58.38
56604;BME280;42486;47.478;19.036;2023-02-23T14:47:48;100272.16;;;11.41;58.57
56604;BME280;42486;47.478;19.036;2023-02-23T14:51:07;100269.53;;;11.41;56.55
56604;BME280;42486;47.478;19.036;2023-02-23T14:54:25;100266.44;;;11.14;57.11
56604;BME280;42486;47.478;19.036;2023-02-23T14:57:28;100257.87;;;11.00;58.77
56604;BME280;42486;47.478;19.036;2023-02-23T15:00:40;100261.59;;;11.09;58.41
56604;BME280;42486;47.478;19.036;2023-02-23T15:04:03;100257.19;;;10.98;59.32
56604;BME280;42486;47.478;19.036;2023-02-23T15:07:09;100256.22;;;10.88;58.04
56604;BME280;42486;47.478;19.036;2023-02-23T15:10:27;100253.94;;;10.72;60.05
56604;BME280;42486;47.478;19.036;2023-02-23T15:13:34;100240.72;;;10.63;60.45
56604;BME280;42486;47.478;19.036;2023-02-23T15:16:37;100245.59;;;10.56;61.18
56604;BME280;42486;47.478;19.036;2023-02-23T15:19:44;100247.47;;;10.43;60.47
56604;BME280;42486;47.478;19.036;2023-02-23T15:22:50;100245.28;;;10.36;60.48
56604;BME280;42486;47.478;19.036;2023-02-23T15:25:57;100241.59;;;10.28;61.65
56604;BME280;42486;47.478;19.036;2023-02-23T15:29:04;100244.63;;;10.22;61.57
56604;BME280;42486;47.478;19.036;2023-02-23T15:32:11;100242.47;;;10.15;61.56
56604;BME280;42486;47.478;19.036;2023-02-23T15:35:20;100242.47;;;10.15;62.10
56604;BME280;42486;47.478;19.036;2023-02-23T15:38:28;100243.75;;;10.10;62.12
56604;BME280;42486;47.478;19.036;2023-02-23T15:41:45;100236.38;;;10.04;64.59
56604;BME280;42486;47.478;19.036;2023-02-23T15:44:55;100239.47;;;10.09;65.31
56604;BME280;42486;47.478;19.036;2023-02-23T15:48:04;100233.87;;;10.02;64.02
56604;BME280;42486;47.478;19.036;2023-02-23T15:51:13;100230.66;;;9.99;64.63
56604;BME280;42486;47.478;19.036;2023-02-23T15:54:33;100240.63;;;10.05;62.85
56604;BME280;42486;47.478;19.036;2023-02-23T15:57:45;100237.88;;;9.95;62.99
56604;BME280;42486;47.478;19.036;2023-02-23T16:00:56;100237.53;;;10.00;63.33
56604;BME280;42486;47.478;19.036;2023-02-23T16:07:26;100235.28;;;9.95;64.06
56604;BME280;42486;47.478;19.036;2023-02-23T16:10:29;100236.75;;;9.86;63.32
56604;BME280;42486;47.478;19.036;2023-02-23T16:13:37;100239.09;;;9.78;65.25
56604;BME280;42486;47.478;19.036;2023-02-23T16:16:51;100242.09;;;9.85;64.93
56604;BME280;42486;47.478;19.036;2023-02-23T16:23:28;100238.41;;;9.76;66.82
56604;BME280;42486;47.478;19.036;2023-02-23T16:26:48;100242.06;;;9.74;65.47
56604;BME280;42486;47.478;19.036;2023-02-23T16:30:22;100236.84;;;9.74;66.75
56604;BME280;42486;47.478;19.036;2023-02-23T16:36:39;100236.59;;;9.77;67.20
56604;BME280;42486;47.478;19.036;2023-02-23T16:39:44;100240.28;;;9.74;67.17
56604;BME280;42486;47.478;19.036;2023-02-23T16:42:47;100238.22;;;9.66;67.50
56604;BME280;42486;47.478;19.036;2023-02-23T16:45:50;100230.84;;;9.60;67.04
56604;BME280;42486;47.478;19.036;2023-02-23T16:48:56;100242.19;;;9.59;66.75
56604;BME280;42486;47.478;19.036;2023-02-23T16:52:00;100236.47;;;9.54;67.30
56604;BME280;42486;47.478;19.036;2023-02-23T16:55:11;100244.50;;;9.51;67.72
56604;BME280;42486;47.478;19.036;2023-02-23T16:58:21;100239.41;;;9.50;66.80
56604;BME280;42486;47.478;19.036;2023-02-23T17:01:26;100240.34;;;9.48;67.81
56604;BME280;42486;47.478;19.036;2023-02-23T17:04:30;100230.03;;;9.47;67.38
56604;BME280;42486;47.478;19.036;2023-02-23T17:07:33;100232.84;;;9.44;67.45
56604;BME280;42486;47.478;19.036;2023-02-23T17:10:42;100233.25;;;9.51;66.67
56604;BME280;42486;47.478;19.036;2023-02-23T17:13:48;100214.78;;;9.54;66.30
56604;BME280;42486;47.478;19.036;2023-02-23T17:16:52;100215.50;;;9.56;68.21
56604;BME280;42486;47.478;19.036;2023-02-23T17:19:57;100227.94;;;9.52;68.95
56604;BME280;42486;47.478;19.036;2023-02-23T17:23:01;100231.47;;;9.51;70.90
56604;BME280;42486;47.478;19.036;2023-02-23T17:26:08;100238.28;;;9.41;72.34
56604;BME280;42486;47.478;19.036;2023-02-23T17:29:12;100233.41;;;9.36;71.28
56604;BME280;42486;47.478;19.036;2023-02-23T17:32:15;100238.19;;;9.30;70.60
56604;BME280;42486;47.478;19.036;2023-02-23T17:35:18;100232.25;;;9.27;70.30
56604;BME280;42486;47.478;19.036;2023-02-23T17:38:22;100239.75;;;9.32;71.34
56604;BME280;42486;47.478;19.036;2023-02-23T17:41:35;100236.31;;;9.32;74.11
56604;BME280;42486;47.478;19.036;2023-02-23T17:44:38;100238.66;;;9.23;72.45
56604;BME280;42486;47.478;19.036;2023-02-23T17:47:42;100238.13;;;9.18;72.04
56604;BME280;42486;47.478;19.036;2023-02-23T17:50:54;100237.81;;;9.23;72.59
56604;BME280;42486;47.478;19.036;2023-02-23T17:54:02;100232.91;;;9.18;71.93